Home > Products > Valid Products > TAF

000
FTUS44 KHUN 311205 AAA
TAFHSV
TAF AMD
KHSV 311205Z 3112/0112 00000KT P6SM VCSH SCT050 OVC090
     FM311500 34005KT P6SM BKN050
     FM311800 33015G25KT P6SM VCSH BKN040
     FM312200 33015G25KT P6SM BKN050
     FM010200 32010KT P6SM SCT050=



000
FTUS44 KHUN 311120
TAFHSV
TAF
KHSV 311120Z 3112/0112 00000KT P6SM SCT050 OVC090
     FM311500 34005KT P6SM BKN050
     FM311800 33015G25KT P6SM VCSH BKN040
     FM312200 33015G25KT P6SM BKN050
     FM010200 32010KT P6SM SCT050=



000
FTUS44 KHUN 311120
TAFMSL
TAF
KMSL 311120Z 3112/0112 VRB03KT P6SM BKN050
     FM311500 34005KT P6SM BKN050
     FM311700 33015G25KT P6SM VCSH BKN040
     FM312100 33015G25KT P6SM BKN050
     FM010100 32010KT P6SM SCT050=



000
FTUS44 KHUN 310520
TAFHSV
TAF
KHSV 310520Z 3106/0106 VRB03KT P6SM FEW070 OVC120
     FM311500 34007KT P6SM BKN060 OVC100
     FM311900 33015G25KT P6SM BKN040
     FM010100 34010KT P6SM SKC=



000
FTUS44 KHUN 310520
TAFMSL
TAF
KMSL 310520Z 3106/0106 VRB03KT P6SM FEW070 OVC120
     FM311400 34007KT P6SM BKN060 OVC100
     FM311800 33015G25KT P6SM BKN040
     FM010000 34010KT P6SM SKC=



000
FTUS44 KHUN 302333
TAFHSV
TAF
KHSV 302333Z 3100/3124 35005KT P6SM SKC
     FM310400 VRB03KT P6SM FEW070 OVC120
     FM311500 34007KT P6SM BKN060 OVC100
     FM311900 33015G25KT P6SM BKN040=



000
FTUS44 KHUN 302333
TAFMSL
TAF
KMSL 302333Z 3100/3124 33005KT P6SM SKC
     FM310300 VRB03KT P6SM FEW070 OVC120
     FM311400 34007KT P6SM BKN060 OVC100
     FM311800 33015G25KT P6SM BKN040=



000
FTUS44 KHUN 301720
TAFHSV
TAF
KHSV 301720Z 3018/3118 35005KT P6SM SKC
     FM310000 VRB03KT P6SM SCT120
     FM311400 34012G20KT P6SM BKN080 OVC100
     FM311700 33015G25KT P6SM SCT080=



000
FTUS44 KHUN 301720
TAFMSL
TAF
KMSL 301720Z 3018/3118 35005KT P6SM SKC
     FM310000 VRB03KT P6SM SCT120
     FM311200 34012G20KT P6SM BKN080 OVC100
     FM311700 33015G25KT P6SM SCT080=



000
FTUS44 KHUN 301324 AAB
TAFMSL
TAF AMD
KMSL 301324Z 3013/3112 35005KT P6SM SKC
     FM310000 VRB03KT P6SM SCT120
     FM310600 00000KT P6SM BKN090=



000
FTUS44 KHUN 301155 AAA
TAFMSL
TAF AMD
KMSL 301155Z 3012/3112 35005KT P6SM SKC
      TEMPO 3012/3014 2SM BR
     FM310000 VRB03KT P6SM SCT120
     FM310600 00000KT P6SM BKN090=



000
FTUS44 KHUN 301120
TAFHSV
TAF
KHSV 301120Z 3012/3112 35005KT P6SM SKC
     FM310000 VRB03KT P6SM SCT120
     FM310600 00000KT P6SM BKN090=



000
FTUS44 KHUN 301120
TAFMSL
TAF
KMSL 301120Z 3012/3112 35005KT P6SM SKC
     FM310000 VRB03KT P6SM SCT120
     FM310600 00000KT P6SM BKN090=



000
FTUS44 KHUN 300539
TAFHSV
TAF
KHSV 300539Z 3006/3106 34002KT P6SM SKC
     FM301400 36005KT P6SM FEW030=



000
FTUS44 KHUN 300539
TAFMSL
TAF
KMSL 300539Z 3006/3106 35003KT P6SM SKC
      TEMPO 3008/3012 3SM BR
     FM301400 36005KT P6SM FEW030=



000
FTUS44 KHUN 292325
TAFHSV
TAF
KHSV 292325Z 3000/3024 34002KT P6SM SKC
     FM301400 01005KT P6SM FEW030=



000
FTUS44 KHUN 292325
TAFMSL
TAF
KMSL 292325Z 3000/3024 35003KT P6SM SKC
      TEMPO 3008/3012 3SM BR
     FM301400 01005KT P6SM FEW030=



000
FTUS44 KHUN 291720
TAFHSV
TAF
KHSV 291720Z 2918/3018 36010G15KT P6SM SKC
     FM300000 00000KT P6SM SKC
      TEMPO 3008/3012 5SM BR
     FM301400 01005KT P6SM FEW030 FEW250=



000
FTUS44 KHUN 291720
TAFMSL
TAF
KMSL 291720Z 2918/3018 36010G15KT P6SM SKC
     FM300000 VRB03KT P6SM SKC
      TEMPO 3008/3012 3SM BR
     FM301400 01005KT P6SM FEW030 FEW250=



000
FTUS44 KHUN 291528 AAA
TAFHSV
TAF AMD
KHSV 291528Z 2915/3012 01010KT P6SM OVC030
     FM291600 36010KT P6SM SKC
     FM300000 VRB03KT P6SM SKC=



000
FTUS44 KHUN 291527 AAA
TAFMSL
TAF AMD
KMSL 291527Z 2915/3012 36010KT P6SM SKC
     FM300000 VRB03KT P6SM SKC=



000
FTUS44 KHUN 291120
TAFHSV
TAF
KHSV 291120Z 2912/3012 01005KT P6SM -RA BKN008 OVC025
     FM291400 01010KT P6SM SCT015 BKN050
     FM291700 36010KT P6SM SCT090
     FM292100 36010KT P6SM SKC
     FM300000 VRB03KT P6SM SKC=



000
FTUS44 KHUN 291120
TAFMSL
TAF
KMSL 291120Z 2912/3012 03005KT P6SM -RA SCT009 BKN025
     FM291300 03005KT P6SM SCT015 BKN050
     FM291600 36010KT P6SM SCT090
     FM292000 36010KT P6SM SKC
     FM300000 VRB03KT P6SM SKC=



000
FTUS44 KHUN 291050 AAB
TAFHSV
TAF AMD
KHSV 291050Z 2911/3006 01010KT P6SM -RA BKN008 OVC050
     FM291300 01007KT P6SM SCT015 BKN110
     FM291600 35005KT P6SM SKC=



000
FTUS44 KHUN 291050 AAB
TAFHSV
TAF AMD
KHSV 291050Z 2911/3006 01010KT P6SM -RA BKN008 OVC050
     FM291300 01007KT P6SM SCT015 BKN110
     FM291600 35005KT P6SM SKC=



000
FTUS44 KHUN 290835 AAA
TAFHSV
TAF AMD
KHSV 290835Z 2909/3006 01010KT P6SM VCTS SCT005 BKN015CB
     FM291000 01010KT P6SM RA BKN025 OVC050
     FM291300 01007KT P6SM SCT035 SCT110 BKN250
     FM291600 35005KT P6SM SKC=



000
FTUS44 KHUN 290722 AAB
TAFMSL
TAF AMD
KMSL 290722Z 2907/3006 03007KT P6SM VCTS SCT005 BKN025CB
     FM290900 29005KT P6SM VCSH SCT005 BKN030
     FM291200 01007KT P6SM SCT035 SCT110 BKN250
     FM291500 35005KT P6SM SKC=



000
FTUS44 KHUN 290638 AAA
TAFMSL
TAF AMD
KMSL 290638Z 2907/3006 03007KT 5SM RA BR SCT005 BKN025
      TEMPO 2907/2909 BKN005
     FM291200 01007KT P6SM SCT035 SCT110 BKN250
     FM291500 35005KT P6SM SKC=



000
FTUS44 KHUN 290520
TAFHSV
TAF
KHSV 290520Z 2906/3006 VRB03KT P6SM VCSH SCT110 OVC250
     FM290700 03007KT 5SM RA BR BKN025 OVC050
      TEMPO 2910/2913 BKN015
     FM291300 01007KT P6SM SCT035 SCT110 BKN250
     FM291600 35005KT P6SM SKC=



000
FTUS44 KHUN 290520
TAFMSL
TAF
KMSL 290520Z 2906/3006 03007KT 5SM RA BR BKN025 OVC050
      TEMPO 2909/2912 BKN015
     FM291200 01007KT P6SM SCT035 SCT110 BKN250
     FM291500 35005KT P6SM SKC=



000
FTUS44 KHUN 282340
TAFMSL
TAF
KMSL 282340Z 2900/2924 22005KT P6SM FEW040 SCT110 OVC250
     FM290200 22005KT 6SM SHRA BR VCTS BKN035CB BKN110 OVC250
     FM290500 03008KT 5SM RA BR BKN025 OVC050
     FM291200 03008KT P6SM SCT030 SCT110 BKN250
     FM291500 34006KT P6SM SKC=



000
FTUS44 KHUN 282340
TAFHSV
TAF
KHSV 282340Z 2900/2924 22005KT P6SM FEW040 SCT110 OVC250
     FM290400 22005KT 6SM SHRA BR VCTS BKN035CB BKN110 OVC250
     FM290700 03008KT 5SM RA BR BKN025 OVC050
     FM291400 03008KT P6SM SCT030 SCT110 BKN250
     FM291700 34006KT P6SM SKC=



000
FTUS44 KHUN 281720
TAFHSV
TAF
KHSV 281720Z 2818/2918 22008KT P6SM SCT020 BKN040
     FM290100 18005KT P6SM VCSH OVC050
     FM290500 VRB04KT 5SM -SHRA BR OVC030
     FM291500 01010KT P6SM SCT030 OVC090=



000
FTUS44 KHUN 281720
TAFMSL
TAF
KMSL 281720Z 2818/2918 21009KT P6SM BKN025
     FM290000 20005KT P6SM VCSH OVC040
     FM290300 VRB03KT 4SM SHRA OVC025
     FM291400 02008KT P6SM SCT025 OVC070=



    US Dept of Commerce
    National Oceanic and Atmospheric Administration
    National Weather Service
    1325 East West Highway
    Silver Spring, MD 20910
    Page Author: NWS Internet Services Team
Disclaimer
Information Quality
Credits
Glossary
Privacy Policy
Freedom of Information Act (FOIA)
About Us
Career Opportunities